createdAt,value
2019-04-05T00:01:37.226Z,79.00
2019-04-05T00:04:05.453Z,79.40
2019-04-05T00:06:35.038Z,79.50
2019-04-05T00:09:04.322Z,80.10
2019-04-05T00:11:32.548Z,80.30
2019-04-05T00:14:00.765Z,80.10
2019-04-05T00:16:29.087Z,80.20
2019-04-05T00:18:57.306Z,80.10
2019-04-05T00:21:25.517Z,80.10
2019-04-05T00:23:53.747Z,80.20
2019-04-05T00:26:21.958Z,80.60
2019-04-05T00:28:51.789Z,80.90
2019-04-05T00:31:20.283Z,81.20
2019-04-05T00:33:48.543Z,81.00
2019-04-05T00:36:16.830Z,80.90
2019-04-05T00:38:45.059Z,80.70
2019-04-05T00:41:13.328Z,80.40
2019-04-05T00:43:41.542Z,80.70
2019-04-05T00:46:09.783Z,80.70
2019-04-05T00:48:38.002Z,80.60
2019-04-05T00:51:06.231Z,81.50
2019-04-05T00:53:34.454Z,82.10
2019-04-05T00:56:02.678Z,82.60
2019-04-05T00:58:30.901Z,82.40
2019-04-05T01:01:01.170Z,82.20
2019-04-05T01:03:29.804Z,82.00
2019-04-05T01:05:58.025Z,81.70
2019-04-05T01:08:26.505Z,81.70
2019-04-05T01:10:54.720Z,81.60
2019-04-05T01:13:22.944Z,81.60
2019-04-05T01:15:51.165Z,81.40
2019-04-05T01:18:19.408Z,81.50
2019-04-05T01:20:49.002Z,81.40
2019-04-05T01:23:17.243Z,81.50
2019-04-05T01:25:45.930Z,81.70
2019-04-05T01:28:14.324Z,81.70
2019-04-05T01:30:42.546Z,83.00
2019-04-05T01:33:10.821Z,82.30
2019-04-05T01:35:39.065Z,81.90
2019-04-05T01:38:07.284Z,81.70
2019-04-05T01:40:35.515Z,82.20
2019-04-05T01:43:03.725Z,82.00
2019-04-05T01:45:31.984Z,81.90
2019-04-05T01:48:00.193Z,81.40
2019-04-05T01:50:28.417Z,81.20
2019-04-05T01:52:56.629Z,81.10
2019-04-05T01:55:24.897Z,80.90
2019-04-05T01:57:53.110Z,80.70
2019-04-05T02:00:21.335Z,80.90
2019-04-05T02:02:49.548Z,80.90
2019-04-05T02:05:17.814Z,81.00
2019-04-05T02:07:46.059Z,81.40
2019-04-05T02:10:14.308Z,81.60
2019-04-05T02:12:42.514Z,81.40
2019-04-05T02:15:12.398Z,82.20
2019-04-05T02:17:40.631Z,81.30
2019-04-05T02:20:08.883Z,81.10
2019-04-05T02:22:37.080Z,80.60
2019-04-05T02:25:06.207Z,80.70
2019-04-05T02:27:34.514Z,80.70
2019-04-05T02:30:02.735Z,80.20
2019-04-05T02:32:30.972Z,80.60
2019-04-05T02:34:59.190Z,80.70
2019-04-05T02:37:27.419Z,80.90
2019-04-05T02:39:55.987Z,81.10
2019-04-05T02:42:24.217Z,81.00
2019-04-05T02:44:52.437Z,80.70
2019-04-05T02:47:20.671Z,80.30
2019-04-05T02:49:48.894Z,80.30
2019-04-05T02:52:17.631Z,80.10
2019-04-05T02:54:45.849Z,80.20
2019-04-05T02:57:14.068Z,80.20
2019-04-05T02:59:42.337Z,80.40
2019-04-05T03:02:12.173Z,80.40
2019-04-05T03:04:40.391Z,80.40
2019-04-05T03:07:09.023Z,80.10
2019-04-05T03:09:37.239Z,79.70
2019-04-05T03:12:05.639Z,79.70
2019-04-05T03:14:34.215Z,79.50
2019-04-05T03:17:02.446Z,79.70
2019-04-05T03:19:31.513Z,79.80
2019-04-05T03:22:01.651Z,79.90
2019-04-05T03:24:30.040Z,79.80
2019-04-05T03:27:00.607Z,80.10
2019-04-05T03:29:28.818Z,80.40
2019-04-05T03:31:57.041Z,80.50
2019-04-05T03:34:25.288Z,80.40
2019-04-05T03:36:53.571Z,80.40
2019-04-05T03:39:23.047Z,80.10
2019-04-05T03:41:52.310Z,79.50
2019-04-05T03:44:22.975Z,79.70
2019-04-05T03:46:56.739Z,79.50
2019-04-05T03:49:20.811Z,79.90
2019-04-05T03:51:49.048Z,80.20
2019-04-05T03:54:17.265Z,80.30
2019-04-05T03:56:45.467Z,80.10
2019-04-05T03:59:13.701Z,79.90
2019-04-05T04:01:41.931Z,79.60
2019-04-05T04:04:10.243Z,79.20
2019-04-05T04:06:38.555Z,79.20
2019-04-05T04:09:06.784Z,79.10
2019-04-05T04:11:35.200Z,78.60
2019-04-05T04:14:03.429Z,78.60
2019-04-05T04:16:31.648Z,78.60
2019-04-05T04:19:00.341Z,78.40
2019-04-05T04:21:31.818Z,78.50
2019-04-05T04:24:00.038Z,78.40
2019-04-05T04:26:28.270Z,78.50
2019-04-05T04:28:56.777Z,78.70
2019-04-05T04:31:25.025Z,78.90
2019-04-05T04:33:53.327Z,79.00
2019-04-05T04:36:21.619Z,79.10
2019-04-05T04:38:50.276Z,78.90
2019-04-05T04:41:18.504Z,78.80
2019-04-05T04:43:46.780Z,78.70
2019-04-05T04:46:15.036Z,78.70
2019-04-05T04:48:43.246Z,78.60
2019-04-05T04:51:11.475Z,78.60
2019-04-05T04:53:39.685Z,78.70
2019-04-05T04:56:07.974Z,78.60
2019-04-05T04:58:36.332Z,78.60
2019-04-05T05:01:04.636Z,78.80
2019-04-05T05:03:32.896Z,78.80
2019-04-05T05:06:01.217Z,79.00
2019-04-05T05:08:29.442Z,79.00
2019-04-05T05:10:57.665Z,79.00
2019-04-05T05:13:25.947Z,78.70
2019-04-05T05:15:54.206Z,78.20
2019-04-05T05:18:22.455Z,78.20
2019-04-05T05:20:50.674Z,78.10
2019-04-05T05:23:18.972Z,78.00
2019-04-05T05:25:47.255Z,77.80
2019-04-05T05:28:15.602Z,77.90
2019-04-05T05:30:43.905Z,77.60
2019-04-05T05:33:12.162Z,77.60
2019-04-05T05:35:40.421Z,78.00
2019-04-05T05:38:08.661Z,78.30
2019-04-05T05:40:36.882Z,78.60
2019-04-05T05:43:05.102Z,79.20
2019-04-05T05:45:33.336Z,79.30
2019-04-05T05:48:01.552Z,79.30
2019-04-05T05:50:29.784Z,79.20
2019-04-05T05:52:58.039Z,79.20
2019-04-05T05:55:26.254Z,79.50
2019-04-05T05:57:57.210Z,79.50
2019-04-05T06:00:24.831Z,79.30
2019-04-05T06:02:53.057Z,79.10
2019-04-05T06:05:21.299Z,79.30
2019-04-05T06:07:49.542Z,79.40
2019-04-05T06:10:17.770Z,79.60
2019-04-05T06:12:46.817Z,80.00
2019-04-05T06:15:16.847Z,80.20
2019-04-05T06:17:45.056Z,80.30
2019-04-05T06:20:14.947Z,80.10
2019-04-05T06:22:43.157Z,79.90
2019-04-05T06:25:11.409Z,79.80
2019-04-05T06:27:39.680Z,79.60
2019-04-05T06:30:07.907Z,79.60
2019-04-05T06:32:36.166Z,79.70
2019-04-05T06:35:06.210Z,79.60
2019-04-05T06:37:34.426Z,79.80
2019-04-05T06:40:02.909Z,79.80
2019-04-05T06:42:31.167Z,79.70
2019-04-05T06:44:59.408Z,79.70
2019-04-05T06:47:27.633Z,79.70
2019-04-05T06:49:55.890Z,80.20
2019-04-05T06:52:24.119Z,80.50
2019-04-05T06:54:52.357Z,80.30
2019-04-05T06:57:20.571Z,80.40
2019-04-05T06:59:48.796Z,80.60
2019-04-05T07:02:18.488Z,80.60
2019-04-05T07:04:46.951Z,80.60
2019-04-05T07:07:17.744Z,80.80
2019-04-05T07:09:45.145Z,81.00
2019-04-05T07:12:13.413Z,80.80
2019-04-05T07:14:41.628Z,80.80
2019-04-05T07:17:09.851Z,80.60
2019-04-05T07:19:38.161Z,80.80
2019-04-05T07:22:06.410Z,80.90
2019-04-05T07:24:34.624Z,80.80
2019-04-05T07:27:02.845Z,80.60
2019-04-05T07:29:31.076Z,80.70
2019-04-05T07:31:59.311Z,80.90
2019-04-05T07:34:27.526Z,80.70
2019-04-05T07:36:55.799Z,80.50
2019-04-05T07:39:24.701Z,80.40
2019-04-05T07:41:52.960Z,80.20
2019-04-05T07:44:21.172Z,80.50
2019-04-05T07:46:49.394Z,80.40
2019-04-05T07:49:17.609Z,80.10
2019-04-05T07:51:45.840Z,79.90
2019-04-05T07:54:14.075Z,79.50
2019-04-05T07:56:42.310Z,79.10
2019-04-05T07:59:10.530Z,78.80
2019-04-05T08:01:38.762Z,78.40
2019-04-05T08:04:06.984Z,79.00
2019-04-05T08:06:35.223Z,78.80
2019-04-05T08:09:06.539Z,78.80
2019-04-05T08:11:34.771Z,78.30
2019-04-05T08:14:02.992Z,77.50
2019-04-05T08:16:31.215Z,77.20
2019-04-05T08:18:59.479Z,76.20
2019-04-05T08:21:27.693Z,76.00
2019-04-05T08:23:56.947Z,75.90
2019-04-05T08:26:25.199Z,74.90
2019-04-05T08:28:53.414Z,74.50
2019-04-05T08:31:21.684Z,74.50
2019-04-05T08:33:49.936Z,73.70
2019-04-05T08:36:18.146Z,73.40
2019-04-05T08:38:46.379Z,73.20
2019-04-05T08:41:14.594Z,73.30
2019-04-05T08:44:02.255Z,73.00
2019-04-05T08:46:30.483Z,72.20
2019-04-05T08:49:10.124Z,71.70
2019-04-05T08:51:28.642Z,70.80
2019-04-05T08:53:56.861Z,71.20
2019-04-05T08:56:25.094Z,71.20
2019-04-05T08:58:53.379Z,70.20
2019-04-05T09:01:21.631Z,69.30
2019-04-05T09:03:49.955Z,70.20
2019-04-05T09:06:18.255Z,70.40
2019-04-05T09:08:46.517Z,69.30
2019-04-05T09:11:14.808Z,68.50
2019-04-05T09:13:43.040Z,68.00
2019-04-05T09:16:11.864Z,67.50
2019-04-05T09:18:40.254Z,66.90
2019-04-05T09:21:10.146Z,66.60
2019-04-05T09:23:38.527Z,66.10
2019-04-05T09:26:06.741Z,66.70
2019-04-05T09:28:34.979Z,67.40
2019-04-05T09:31:03.255Z,66.40
2019-04-05T09:33:31.469Z,66.80
2019-04-05T09:35:59.712Z,66.60
2019-04-05T09:38:27.930Z,66.10
2019-04-05T09:40:56.194Z,65.80
2019-04-05T09:43:24.455Z,65.60
2019-04-05T09:45:52.740Z,64.90
2019-04-05T09:48:20.966Z,65.00
2019-04-05T09:50:49.182Z,64.70
2019-04-05T09:53:17.423Z,64.20
2019-04-05T09:55:45.668Z,63.70
2019-04-05T09:58:13.893Z,63.60
2019-04-05T10:00:42.104Z,63.80
2019-04-05T10:03:10.347Z,64.00
2019-04-05T10:05:38.550Z,63.80
2019-04-05T10:08:06.773Z,64.50
2019-04-05T10:10:35.003Z,64.90
2019-04-05T10:13:03.328Z,64.70
2019-04-05T10:15:31.578Z,65.20
2019-04-05T10:17:59.798Z,65.30
2019-04-05T10:20:28.056Z,65.40
2019-04-05T10:22:56.285Z,65.50
2019-04-05T10:25:24.508Z,66.10
2019-04-05T10:27:52.734Z,65.90
2019-04-05T10:30:20.963Z,65.50
2019-04-05T10:32:49.211Z,65.60
2019-04-05T10:35:17.453Z,65.40
2019-04-05T10:37:45.680Z,65.40
2019-04-05T10:40:13.886Z,64.80
2019-04-05T10:42:42.147Z,64.00
2019-04-05T10:45:11.039Z,63.70
2019-04-05T10:47:39.281Z,64.20
2019-04-05T10:50:08.731Z,64.50
2019-04-05T10:52:37.033Z,64.50
2019-04-05T10:55:05.634Z,64.20
2019-04-05T10:57:33.874Z,63.90
2019-04-05T11:00:02.186Z,64.10
2019-04-05T11:02:30.416Z,64.00
2019-04-05T11:04:58.638Z,63.80
2019-04-05T11:07:26.862Z,63.60
2019-04-05T11:09:55.086Z,63.80
2019-04-05T11:12:25.273Z,63.70
2019-04-05T11:14:53.500Z,63.30
2019-04-05T11:17:21.726Z,63.40
2019-04-05T11:19:49.954Z,63.00
2019-04-05T11:22:20.268Z,62.70
2019-04-05T11:24:48.156Z,63.10
2019-04-05T11:27:16.369Z,62.20
2019-04-05T11:29:44.618Z,61.50
2019-04-05T11:32:12.841Z,62.10
2019-04-05T11:34:41.063Z,61.70
2019-04-05T11:37:09.319Z,62.30
2019-04-05T11:39:37.540Z,62.10
2019-04-05T11:42:06.300Z,62.00
2019-04-05T11:44:34.582Z,61.80
2019-04-05T11:47:03.584Z,62.50
2019-04-05T11:49:31.857Z,62.30
2019-04-05T11:52:00.075Z,62.60
2019-04-05T11:54:28.297Z,62.50
2019-04-05T11:56:56.630Z,62.20
2019-04-05T11:59:24.897Z,62.70
2019-04-05T12:02:11.027Z,62.60
2019-04-05T12:04:39.249Z,62.40
2019-04-05T12:07:07.475Z,62.50
2019-04-05T12:09:35.703Z,62.40
2019-04-05T12:12:03.967Z,62.10
2019-04-05T12:14:32.173Z,62.40
2019-04-05T12:17:00.418Z,61.50
2019-04-05T12:19:28.631Z,61.70
2019-04-05T12:21:56.858Z,61.80
2019-04-05T12:24:25.091Z,61.60
2019-04-05T12:26:53.357Z,61.00
2019-04-05T12:29:21.951Z,60.30
2019-04-05T12:31:53.237Z,59.40
2019-04-05T12:34:22.236Z,59.30
2019-04-05T12:36:50.580Z,58.70
2019-04-05T12:39:20.066Z,58.10
2019-04-05T12:41:48.339Z,57.50
2019-04-05T12:44:16.564Z,56.40
2019-04-05T12:46:45.930Z,56.10
2019-04-05T12:49:15.325Z,55.80
2019-04-05T12:51:46.120Z,56.10
2019-04-05T12:54:14.607Z,55.70
2019-04-05T12:56:42.837Z,55.40
2019-04-05T12:59:11.068Z,55.40
2019-04-05T13:01:39.291Z,55.40
2019-04-05T13:04:07.558Z,55.40
2019-04-05T13:06:35.774Z,55.10
2019-04-05T13:09:06.576Z,55.00
2019-04-05T13:11:35.812Z,55.10
2019-04-05T13:14:04.087Z,55.50
2019-04-05T13:16:32.309Z,55.20
2019-04-05T13:19:01.487Z,55.10
2019-04-05T13:21:32.049Z,55.10
2019-04-05T13:23:59.936Z,55.40
2019-04-05T13:26:28.150Z,55.30
2019-04-05T13:28:56.432Z,54.70
2019-04-05T13:31:24.688Z,54.30
2019-04-05T13:33:55.271Z,53.80
2019-04-05T13:36:22.875Z,54.60
2019-04-05T13:38:54.970Z,54.70
2019-04-05T13:41:40.499Z,54.60
2019-04-05T13:44:08.762Z,54.50
2019-04-05T13:46:39.073Z,54.40
2019-04-05T13:49:10.350Z,54.00
2019-04-05T13:51:36.906Z,54.60
2019-04-05T13:54:05.137Z,55.20
2019-04-05T13:56:33.397Z,55.20
2019-04-05T13:59:01.625Z,55.40
2019-04-05T14:01:29.890Z,55.40
2019-04-05T14:03:58.147Z,55.30
2019-04-05T14:06:26.410Z,55.30
2019-04-05T14:08:54.667Z,55.60
2019-04-05T14:11:25.810Z,55.90
2019-04-05T14:13:52.880Z,56.20
2019-04-05T14:16:21.099Z,56.50
2019-04-05T14:18:49.820Z,56.00
2019-04-05T14:21:20.644Z,56.30
2019-04-05T14:23:48.229Z,56.30
2019-04-05T14:26:16.475Z,56.10
2019-04-05T14:28:44.706Z,56.90
2019-04-05T14:31:12.965Z,56.90
2019-04-05T14:33:41.190Z,56.90
2019-04-05T14:36:09.416Z,56.90
2019-04-05T14:38:37.642Z,56.70
2019-04-05T14:41:05.915Z,56.40
2019-04-05T14:43:37.709Z,56.30
2019-04-05T14:46:05.090Z,56.50
2019-04-05T14:48:33.313Z,56.50
2019-04-05T14:51:03.575Z,56.60
2019-04-05T14:53:32.303Z,56.40
2019-04-05T14:56:01.114Z,56.60
2019-04-05T14:58:29.354Z,56.60
2019-04-05T15:00:57.582Z,56.70
2019-04-05T15:03:25.818Z,57.10
2019-04-05T15:05:54.080Z,57.30
2019-04-05T15:08:22.336Z,57.30
2019-04-05T15:10:51.476Z,56.80
2019-04-05T15:13:19.957Z,57.10
2019-04-05T15:15:48.191Z,57.20
2019-04-05T15:18:19.291Z,57.00
2019-04-05T15:20:46.393Z,57.20
2019-04-05T15:23:14.642Z,57.30
2019-04-05T15:25:42.868Z,57.10
2019-04-05T15:28:11.088Z,57.20
2019-04-05T15:30:39.310Z,57.00
2019-04-05T15:33:07.534Z,56.80
2019-04-05T15:35:35.768Z,56.90
2019-04-05T15:38:03.995Z,57.10
2019-04-05T15:40:32.257Z,57.50
2019-04-05T15:43:00.471Z,57.30
2019-04-05T15:45:28.697Z,57.60
2019-04-05T15:47:56.930Z,57.70
2019-04-05T15:50:25.181Z,58.00
2019-04-05T15:52:53.398Z,58.30
2019-04-05T15:55:21.686Z,58.40
2019-04-05T15:57:49.894Z,58.70
2019-04-05T16:00:20.935Z,58.70
2019-04-05T16:02:49.278Z,59.00
2019-04-05T16:05:17.504Z,59.30
2019-04-05T16:07:45.725Z,59.50
2019-04-05T16:10:13.961Z,59.60
2019-04-05T16:12:42.191Z,60.00
2019-04-05T16:15:11.079Z,60.00
2019-04-05T16:17:39.312Z,60.30
2019-04-05T16:20:09.554Z,60.20
2019-04-05T16:22:37.777Z,60.10
2019-04-05T16:25:07.751Z,60.10
2019-04-05T16:27:36.023Z,60.40
2019-04-05T16:30:05.678Z,60.70
2019-04-05T16:32:33.928Z,60.80
2019-04-05T16:35:02.146Z,61.00
2019-04-05T16:37:30.382Z,61.80
2019-04-05T16:39:58.609Z,62.00
2019-04-05T16:42:26.850Z,62.30
2019-04-05T16:44:55.071Z,61.80
2019-04-05T16:47:23.301Z,62.60
2019-04-05T16:49:51.697Z,62.70
2019-04-05T16:52:19.986Z,62.80
2019-04-05T16:54:48.211Z,63.00
2019-04-05T16:57:35.862Z,62.90
2019-04-05T17:00:06.495Z,63.10
2019-04-05T17:02:34.724Z,62.80
2019-04-05T17:05:02.941Z,62.50
2019-04-05T17:07:31.217Z,62.60
2019-04-05T17:09:59.443Z,62.80
2019-04-05T17:12:27.700Z,63.00
2019-04-05T17:14:55.942Z,62.80
2019-04-05T17:17:24.927Z,63.00
2019-04-05T17:19:53.177Z,63.10
2019-04-05T17:22:21.401Z,63.00
2019-04-05T17:24:49.669Z,63.10
2019-04-05T17:27:17.891Z,63.30
2019-04-05T17:29:46.140Z,63.30
2019-04-05T17:32:14.379Z,63.70
2019-04-05T17:34:42.601Z,63.80
2019-04-05T17:37:10.817Z,63.90
2019-04-05T17:39:39.043Z,64.00
2019-04-05T17:42:07.280Z,64.10
2019-04-05T17:44:35.495Z,64.30
2019-04-05T17:47:04.468Z,64.60
2019-04-05T17:49:32.702Z,64.70
2019-04-05T17:52:01.535Z,65.00
2019-04-05T17:54:29.996Z,65.00
2019-04-05T17:56:58.247Z,65.30
2019-04-05T17:59:26.597Z,65.80
2019-04-05T18:01:55.445Z,66.10
2019-04-05T18:04:23.908Z,66.40
2019-04-05T18:06:52.166Z,66.80
2019-04-05T18:09:20.401Z,67.10
2019-04-05T18:11:49.225Z,67.20
2019-04-05T18:14:17.504Z,67.10
2019-04-05T18:16:45.739Z,67.50
2019-04-05T18:19:13.992Z,67.10
2019-04-05T18:21:42.205Z,67.00
2019-04-05T18:24:10.467Z,67.30
2019-04-05T18:26:38.698Z,67.90
2019-04-05T18:29:07.369Z,68.30
2019-04-05T18:31:35.826Z,68.50
2019-04-05T18:34:04.051Z,68.70
2019-04-05T18:36:32.358Z,69.50
2019-04-05T18:39:00.629Z,69.80
2019-04-05T18:41:28.845Z,70.60
2019-04-05T18:43:57.069Z,69.90
2019-04-05T18:46:25.328Z,70.20
2019-04-05T18:48:53.588Z,70.40
2019-04-05T18:51:22.036Z,70.40
2019-04-05T18:53:50.374Z,70.40
2019-04-05T18:56:18.657Z,70.80
2019-04-05T18:58:46.968Z,70.70
2019-04-05T19:01:15.260Z,71.10
2019-04-05T19:03:45.125Z,70.40
2019-04-05T19:06:13.351Z,71.10
2019-04-05T19:08:42.068Z,71.20
2019-04-05T19:11:10.568Z,71.20
2019-04-05T19:13:38.818Z,71.40
2019-04-05T19:16:07.110Z,72.10
2019-04-05T19:18:35.483Z,72.50
2019-04-05T19:21:03.746Z,72.80
2019-04-05T19:23:31.952Z,73.10
2019-04-05T19:26:01.382Z,72.70
2019-04-05T19:28:29.661Z,72.70
2019-04-05T19:48:30.932Z,74.10
2019-04-05T19:50:59.870Z,74.80
2019-04-05T19:53:28.777Z,74.80
2019-04-05T19:55:56.990Z,74.80
2019-04-05T19:58:25.278Z,74.70
2019-04-05T20:00:56.766Z,74.60
2019-04-05T20:03:25.031Z,74.70
2019-04-05T20:05:53.426Z,74.90
2019-04-05T20:08:21.838Z,74.30
2019-04-05T20:10:50.135Z,74.30
2019-04-05T20:13:18.373Z,75.10
2019-04-05T20:15:49.377Z,75.50
2019-04-05T20:18:17.591Z,75.60
2019-04-05T20:21:05.322Z,76.00
2019-04-05T20:23:33.603Z,76.30
2019-04-05T20:26:02.210Z,76.60
2019-04-05T20:28:30.461Z,76.90
2019-04-05T20:30:58.736Z,77.30
2019-04-05T20:33:26.980Z,77.00
2019-04-05T20:35:55.280Z,76.80
2019-04-05T20:38:23.487Z,76.50
2019-04-05T20:40:51.721Z,76.70
2019-04-05T20:43:20.003Z,76.60
2019-04-05T20:45:48.307Z,77.20
2019-04-05T20:48:16.636Z,77.60
2019-04-05T20:50:45.078Z,78.70
2019-04-05T20:53:13.450Z,78.40
2019-04-05T20:55:41.711Z,78.20
2019-04-05T20:58:09.933Z,78.10
2019-04-05T21:00:38.165Z,78.40
2019-04-05T21:03:06.401Z,79.40
2019-04-05T21:05:34.607Z,78.50
2019-04-05T21:08:02.842Z,79.70
2019-04-05T21:10:31.061Z,80.30
2019-04-05T21:12:59.435Z,80.90
2019-04-05T21:15:47.282Z,80.90
2019-04-05T21:18:15.751Z,81.10
2019-04-05T21:20:44.504Z,82.20
2019-04-05T21:23:13.441Z,82.70
2019-04-05T21:25:41.648Z,82.50
2019-04-05T21:28:09.930Z,82.80
2019-04-05T21:30:38.135Z,82.40
2019-04-05T21:33:06.377Z,82.40
2019-04-05T21:35:34.672Z,82.30
2019-04-05T21:38:02.935Z,82.00
2019-04-05T21:40:33.160Z,81.60
2019-04-05T21:43:03.912Z,81.50
2019-04-05T21:45:32.336Z,81.30
2019-04-05T21:48:00.590Z,81.00
2019-04-05T21:50:28.831Z,81.40
2019-04-05T21:52:57.053Z,81.60
2019-04-05T21:55:25.315Z,81.50
2019-04-05T21:57:54.830Z,81.70
2019-04-05T22:00:26.301Z,81.60
2019-04-05T22:02:54.871Z,81.40
2019-04-05T22:05:23.088Z,81.40
2019-04-05T22:07:51.697Z,81.10
2019-04-05T22:10:20.065Z,81.10
2019-04-05T22:12:48.985Z,81.20
2019-04-05T22:15:19.127Z,81.20
2019-04-05T22:17:47.358Z,81.10
2019-04-05T22:20:15.583Z,81.00
2019-04-05T22:22:43.814Z,81.30
2019-04-05T22:25:12.034Z,81.40
2019-04-05T22:27:41.284Z,82.00
2019-04-05T22:30:09.495Z,81.90
2019-04-05T22:32:37.737Z,81.80
2019-04-05T22:35:05.960Z,82.10
2019-04-05T22:37:35.133Z,82.40
2019-04-05T22:40:05.231Z,82.30
2019-04-05T22:42:33.464Z,82.30
2019-04-05T22:45:01.682Z,82.30
2019-04-05T22:47:30.307Z,81.60
2019-04-05T22:49:58.555Z,81.20
2019-04-05T22:52:26.807Z,81.40
2019-04-05T22:54:55.062Z,82.10
2019-04-05T22:57:23.273Z,82.40
2019-04-05T22:59:51.500Z,82.50
2019-04-05T23:02:19.748Z,82.10
2019-04-05T23:04:49.121Z,82.30
2019-04-05T23:07:17.352Z,82.60
2019-04-05T23:09:45.578Z,82.60
2019-04-05T23:12:13.796Z,82.10
2019-04-05T23:14:42.019Z,82.00
2019-04-05T23:17:10.281Z,82.00
2019-04-05T23:19:38.510Z,82.00
2019-04-05T23:22:06.750Z,82.30
2019-04-05T23:24:34.980Z,82.10
2019-04-05T23:27:03.231Z,82.30
2019-04-05T23:29:31.487Z,82.20
2019-04-05T23:31:59.699Z,82.00
2019-04-05T23:34:28.036Z,81.90
2019-04-05T23:36:56.288Z,82.10
2019-04-05T23:39:24.543Z,82.10
2019-04-05T23:41:52.766Z,82.80
2019-04-05T23:44:21.040Z,82.20
2019-04-05T23:46:49.283Z,81.70
2019-04-05T23:49:17.476Z,81.70
2019-04-05T23:51:45.745Z,81.50
2019-04-05T23:54:14.052Z,81.50
2019-04-05T23:56:42.264Z,81.40
2019-04-05T23:59:10.541Z,81.40
